Time;durP1;ratioP1;P1;durP2;ratioP2;P2;SDS_P1;SDS_P2;PMS_P1;PMS_P2;Temp;Humidity;BMP_temperature;BMP_pressure;BME280_temperature;BME280_humidity;BME280_pressure;Samples;Min_cycle;Max_cycle;Signal;HPM_P1;HPM_P2
2023/09/10 00:02:17;;;;;;;34.08;25.10;;;;;;;20.48;71.50;101879.97;7392069;19;19918;-69
2023/09/10 00:04:45;;;;;;;30.75;23.65;;;;;;;20.43;71.64;101883.38;7393196;19;20643;-72
2023/09/10 00:07:14;;;;;;;32.00;23.58;;;;;;;20.41;71.89;101888.19;7392901;19;19926;-72
2023/09/10 00:09:44;;;;;;;35.10;24.60;;;;;;;20.39;71.85;101887.59;7391486;19;19910;-69
2023/09/10 00:12:12;;;;;;;31.30;22.25;;;;;;;20.32;72.06;101892.25;7391927;19;19918;-69
2023/09/10 00:14:44;;;;;;;30.98;24.40;;;;;;;20.26;72.42;101879.41;7392873;19;19935;-69
2023/09/10 00:17:12;;;;;;;29.45;22.10;;;;;;;20.22;72.14;101881.72;7394160;19;19929;-69
2023/09/10 00:19:41;;;;;;;30.58;23.73;;;;;;;20.20;72.44;101880.25;7390272;19;20296;-68
2023/09/10 00:22:10;;;;;;;31.40;23.13;;;;;;;20.16;72.70;101881.75;7393007;19;19929;-69
2023/09/10 00:24:39;;;;;;;30.65;21.42;;;;;;;20.12;72.86;101881.34;7390485;19;19934;-69
2023/09/10 00:27:08;;;;;;;29.08;21.05;;;;;;;20.10;72.72;101877.16;7393500;19;19927;-69
2023/09/10 00:29:36;;;;;;;29.48;22.13;;;;;;;20.10;72.57;101879.88;7392455;19;19938;-69
2023/09/10 00:32:08;;;;;;;29.90;20.92;;;;;;;20.09;73.04;101875.47;7390942;19;20019;-69
2023/09/10 00:34:36;;;;;;;;;;;;;;;19.74;74.59;101889.44;7395174;19;20344;-69
2023/09/10 00:37:05;;;;;;;28.58;20.98;;;;;;;20.02;72.97;101888.31;7394593;19;20513;-70
2023/09/10 00:39:53;;;;;;;;;;;;;;;19.76;74.35;101894.69;7393104;19;19922;-69
2023/09/10 00:42:22;;;;;;;28.55;19.77;;;;;;;20.00;72.52;101896.75;7394265;19;19926;-69
2023/09/10 00:44:51;;;;;;;29.00;20.70;;;;;;;19.99;72.60;101891.47;7391131;19;19985;-69
2023/09/10 00:47:23;;;;;;;34.40;21.75;;;;;;;19.95;73.39;101888.31;7392831;19;20284;-70
2023/09/10 00:49:52;;;;;;;28.95;20.88;;;;;;;19.95;73.09;101888.31;7390566;19;19946;-69
2023/09/10 00:52:46;;;;;;;30.70;21.23;;;;;;;19.91;73.07;101889.81;7390128;19;19956;-69
2023/09/10 00:55:16;;;;;;;32.42;23.08;;;;;;;19.87;73.62;101888.56;7392852;19;19930;-71
2023/09/10 00:57:45;;;;;;;29.73;22.38;;;;;;;19.83;73.22;101888.16;7390172;19;20382;-69
2023/09/10 01:00:35;;;;;;;28.33;21.75;;;;;;;19.81;73.49;101890.25;7393491;19;19922;-69
2023/09/10 01:03:08;;;;;;;26.20;19.95;;;;;;;19.81;73.83;101889.41;7389678;19;19915;-69
2023/09/10 01:05:38;;;;;;;29.70;22.75;;;;;;;19.78;73.94;101890.69;7393478;19;19927;-69
2023/09/10 01:08:08;;;;;;;31.95;23.45;;;;;;;19.79;73.56;101892.38;7392588;19;20284;-69
2023/09/10 01:10:54;;;;;;;32.75;22.27;;;;;;;19.79;74.05;101897.84;7390789;19;20457;-69
2023/09/10 01:13:33;;;;;;;30.98;23.08;;;;;;;19.78;73.83;101885.22;7392442;19;20263;-69
2023/09/10 01:16:06;;;;;;;33.35;21.67;;;;;;;19.74;73.77;101894.06;7390277;19;19922;-69
2023/09/10 01:19:06;;;;;;;34.63;22.60;;;;;;;19.62;74.92;101890.28;7388880;19;20347;-69
2023/09/10 01:21:44;;;;;;;30.90;23.30;;;;;;;19.51;75.15;101886.28;7392026;19;19922;-69
2023/09/10 01:24:26;;;;;;;30.48;21.65;;;;;;;19.52;74.58;101889.84;7388917;19;19966;-69
2023/09/10 01:27:01;;;;;;;30.42;22.60;;;;;;;19.46;74.70;101892.38;7386324;19;19938;-69
2023/09/10 01:29:30;;;;;;;27.67;19.35;;;;;;;19.45;74.47;101887.97;7393782;19;19939;-69
2023/09/10 01:32:02;;;;;;;30.42;20.67;;;;;;;19.45;74.92;101879.78;7390697;19;19922;-69
2023/09/10 01:34:39;;;;;;;30.58;20.52;;;;;;;19.40;74.75;101887.75;7390658;19;20002;-69
2023/09/10 01:37:37;;;;;;;31.02;24.30;;;;;;;19.35;75.06;101892.13;7391787;19;19940;-71
2023/09/10 01:40:32;;;;;;;27.38;18.70;;;;;;;19.31;75.62;101891.72;7389487;19;20372;-71
2023/09/10 01:43:06;;;;;;;23.85;16.77;;;;;;;19.35;75.12;101892.13;7395955;19;19937;-71
2023/09/10 01:45:36;;;;;;;28.50;18.23;;;;;;;19.33;75.16;101891.50;7405098;19;19931;-70
2023/09/10 01:48:06;;;;;;;24.45;18.52;;;;;;;19.30;74.92;101883.72;7402864;19;19919;-71
2023/09/10 01:50:46;;;;;;;21.83;17.02;;;;;;;19.25;74.71;101888.97;7406222;19;19922;-71
2023/09/10 01:53:16;;;;;;;23.95;16.67;;;;;;;19.19;75.17;101885.22;7402187;19;20252;-71
2023/09/10 01:55:46;;;;;;;20.70;17.42;;;;;;;19.14;74.98;101884.16;7405463;19;19938;-71
2023/09/10 01:58:17;;;;;;;21.58;15.32;;;;;;;19.08;75.08;101890.44;7402462;19;19918;-71
2023/09/10 02:00:46;;;;;;;24.55;16.63;;;;;;;19.03;74.94;101886.44;7406174;19;19926;-71
2023/09/10 02:03:15;;;;;;;25.27;19.27;;;;;;;19.01;75.77;101888.56;7403641;19;20313;-71
2023/09/10 02:06:04;;;;;;;;;;;;;;;18.72;76.83;101890.78;7405601;19;20019;-71
2023/09/10 02:08:33;;;;;;;25.27;18.35;;;;;;;18.91;75.43;101893.56;7403010;19;19930;-71
2023/09/10 02:11:05;;;;;;;24.27;18.25;;;;;;;18.90;75.71;101885.56;7404346;19;20938;-71
2023/09/10 02:13:37;;;;;;;19.83;15.68;;;;;;;18.86;75.16;101887.88;7401578;19;20551;-71
2023/09/10 02:16:06;;;;;;;17.55;13.07;;;;;;;18.81;75.42;101890.38;7404255;19;19923;-71
2023/09/10 02:18:34;;;;;;;19.20;14.20;;;;;;;18.80;75.53;101890.59;7401056;19;19942;-71
2023/09/10 02:21:03;;;;;;;16.10;13.50;;;;;;;18.75;75.59;101887.66;7403784;19;20384;-71
2023/09/10 02:23:32;;;;;;;15.48;12.77;;;;;;;18.70;75.64;101895.59;7400876;19;19922;-71
2023/09/10 02:26:00;;;;;;;12.35;10.98;;;;;;;18.64;75.65;101891.78;7403920;19;20719;-71
2023/09/10 02:28:29;;;;;;;13.30;10.13;;;;;;;18.63;75.47;101892.03;7401761;19;19927;-71
2023/09/10 02:31:06;;;;;;;13.15;11.15;;;;;;;18.54;76.29;101892.22;7405388;19;19942;-71
2023/09/10 02:33:34;;;;;;;;;;;;;;;18.29;77.77;101887.44;7404451;19;19922;-73
2023/09/10 02:36:04;;;;;;;12.85;10.82;;;;;;;18.50;76.03;101890.06;7402654;19;19925;-71
2023/09/10 02:38:33;;;;;;;13.38;9.80;;;;;;;18.47;76.33;101893.19;7402952;19;19935;-71
2023/09/10 02:41:21;;;;;;;11.10;9.27;;;;;;;18.45;75.82;101887.94;7401626;19;19952;-70
2023/09/10 02:43:50;;;;;;;12.27;9.57;;;;;;;18.45;76.13;101884.38;7400669;19;19922;-71
2023/09/10 02:46:21;;;;;;;11.00;9.07;;;;;;;18.44;76.33;101888.13;7402704;19;19922;-71
2023/09/10 02:48:50;;;;;;;12.43;10.65;;;;;;;18.44;76.57;101888.13;7400512;19;19926;-71
2023/09/10 02:51:19;;;;;;;11.85;10.63;;;;;;;18.43;77.16;101884.56;7402916;19;19923;-71
2023/09/10 02:53:48;;;;;;;14.13;12.30;;;;;;;18.42;76.69;101890.25;7399200;19;19942;-71
2023/09/10 02:56:36;;;;;;;14.05;12.65;;;;;;;18.42;76.44;101892.97;7394257;19;19919;-71
2023/09/10 02:59:05;;;;;;;14.23;12.73;;;;;;;18.39;76.93;101891.47;7393170;19;19951;-71
2023/09/10 03:01:36;;;;;;;13.57;12.18;;;;;;;18.37;77.44;101890.84;7395205;19;19937;-71
2023/09/10 03:04:05;;;;;;;15.02;13.60;;;;;;;18.36;77.19;101896.50;7392633;19;19939;-71
2023/09/10 03:06:34;;;;;;;15.30;13.73;;;;;;;18.36;77.31;101891.03;7395600;19;20442;-71
2023/09/10 03:09:03;;;;;;;14.93;13.50;;;;;;;18.37;77.25;101895.47;7394236;19;19922;-71
2023/09/10 03:11:33;;;;;;;14.52;13.02;;;;;;;18.35;77.28;101889.34;7394455;19;19918;-71
2023/09/10 03:14:02;;;;;;;15.05;13.65;;;;;;;18.34;77.74;101887.66;7393182;19;19926;-71
2023/09/10 03:16:31;;;;;;;15.23;13.70;;;;;;;18.34;77.33;101898.56;7396171;19;20271;-71
2023/09/10 03:19:02;;;;;;;15.55;14.15;;;;;;;18.32;77.36;101903.41;7393020;19;20006;-71
2023/09/10 03:21:31;;;;;;;15.38;14.05;;;;;;;18.25;77.21;101891.63;7395296;19;19947;-71
2023/09/10 03:24:00;;;;;;;15.45;13.95;;;;;;;18.24;77.38;101895.41;7392244;19;19919;-71
2023/09/10 03:26:29;;;;;;;16.50;14.93;;;;;;;18.23;77.33;101890.97;7395333;19;19930;-71
2023/09/10 03:28:57;;;;;;;15.15;13.75;;;;;;;18.20;77.79;101886.78;7393831;19;19937;-68
2023/09/10 03:31:26;;;;;;;15.05;13.55;;;;;;;18.18;77.47;101890.75;7394765;19;20221;-68
2023/09/10 03:34:18;;;;;;;16.83;15.23;;;;;;;18.17;77.14;101894.50;7390053;19;19960;-71
2023/09/10 03:36:46;;;;;;;16.35;14.65;;;;;;;18.11;77.41;101885.25;7394790;19;20331;-71
2023/09/10 03:39:15;;;;;;;16.58;14.98;;;;;;;18.10;77.29;101886.31;7393128;19;22963;-71
2023/09/10 03:42:04;;;;;;;15.57;14.05;;;;;;;18.03;77.71;101886.25;7391587;19;20115;-71
2023/09/10 03:44:33;;;;;;;17.50;15.73;;;;;;;17.98;77.52;101871.56;7393735;19;19919;-70
2023/09/10 03:47:02;;;;;;;17.27;15.38;;;;;;;17.97;77.53;101872.59;7388465;19;19921;-71
2023/09/10 03:49:33;;;;;;;17.42;14.77;;;;;;;17.94;77.79;101878.47;7393741;19;21243;-71
2023/09/10 03:52:23;;;;;;;16.80;15.02;;;;;;;17.90;77.65;101878.03;7390483;19;25556;-71
2023/09/10 03:54:52;;;;;;;16.27;14.55;;;;;;;17.89;77.70;101880.94;7394513;19;19951;-71
2023/09/10 03:57:20;;;;;;;16.13;14.35;;;;;;;17.88;78.02;101879.25;7391747;19;19918;-71
2023/09/10 03:59:49;;;;;;;17.10;15.13;;;;;;;17.87;77.61;101889.31;7394363;19;19922;-71
2023/09/10 04:02:18;;;;;;;17.10;15.35;;;;;;;17.82;78.10;101880.88;7390844;19;19943;-71
2023/09/10 04:04:49;;;;;;;16.85;15.15;;;;;;;17.79;78.23;101877.72;7393855;19;19952;-71
2023/09/10 04:07:18;;;;;;;17.83;16.00;;;;;;;17.77;78.00;101885.28;7389650;19;19997;-72
2023/09/10 04:09:46;;;;;;;18.48;16.58;;;;;;;17.74;78.43;101878.31;7393956;19;19918;-71
2023/09/10 04:12:36;;;;;;;19.08;17.17;;;;;;;17.69;78.47;101878.06;7389614;19;19952;-71
2023/09/10 04:15:05;;;;;;;17.77;15.98;;;;;;;17.70;78.22;101885.19;7393777;19;19922;-71
2023/09/10 04:17:34;;;;;;;19.15;17.30;;;;;;;17.69;78.70;101886.25;7390493;19;19918;-71
2023/09/10 04:20:08;;;;;;;16.98;15.18;;;;;;;17.68;79.07;101876.41;7393504;19;19919;-71
2023/09/10 04:22:37;;;;;;;18.77;16.88;;;;;;;17.66;79.08;101884.78;7389969;19;19926;-71
2023/09/10 04:25:06;;;;;;;17.05;15.27;;;;;;;17.68;78.55;101884.56;7393979;19;19914;-71
2023/09/10 04:27:35;;;;;;;21.52;17.10;;;;;;;17.66;78.99;101892.94;7390843;19;19922;-71
2023/09/10 04:30:04;;;;;;;18.17;16.27;;;;;;;17.66;79.17;101894.81;7395061;19;20436;-71
2023/09/10 04:32:33;;;;;;;17.63;15.82;;;;;;;17.64;79.00;101896.91;7391373;19;19919;-71
2023/09/10 04:35:01;;;;;;;18.15;16.45;;;;;;;17.67;78.84;101901.97;7392870;19;19922;-71
2023/09/10 04:37:34;;;;;;;16.88;15.27;;;;;;;17.64;78.88;101900.50;7392908;19;20319;-71
2023/09/10 04:40:05;;;;;;;17.27;15.48;;;;;;;17.63;79.17;101897.94;7393271;19;19922;-70
2023/09/10 04:42:34;;;;;;;18.05;16.25;;;;;;;17.61;78.91;101891.84;7391533;19;19922;-72
2023/09/10 04:45:03;;;;;;;17.05;15.38;;;;;;;17.61;78.72;101897.28;7393028;19;19922;-71
2023/09/10 04:47:31;;;;;;;17.98;16.27;;;;;;;17.60;79.05;101895.63;7389881;19;19919;-71
2023/09/10 04:50:20;;;;;;;19.08;17.08;;;;;;;17.58;79.13;101900.44;7392070;19;19933;-71
2023/09/10 04:52:51;;;;;;;19.83;17.73;;;;;;;17.55;79.39;101901.66;7389366;19;19926;-71
2023/09/10 04:55:20;;;;;;;19.90;17.83;;;;;;;17.53;79.36;101906.44;7393097;19;19922;-71
2023/09/10 04:57:49;;;;;;;19.50;17.50;;;;;;;17.50;79.32;101906.84;7389845;19;19942;-71
2023/09/10 05:00:18;;;;;;;20.33;18.38;;;;;;;17.49;79.53;101904.28;7392217;19;20257;-71
2023/09/10 05:02:46;;;;;;;20.95;18.80;;;;;;;17.50;79.62;101906.00;7391114;19;20407;-71
2023/09/10 05:05:15;;;;;;;21.48;19.25;;;;;;;17.51;79.33;101899.50;7391571;19;19942;-71
2023/09/10 05:07:44;;;;;;;25.52;20.05;;;;;;;17.50;79.23;101903.25;7391752;19;20252;-71
2023/09/10 05:10:15;;;;;;;20.92;18.83;;;;;;;17.48;79.78;101910.78;7392475;19;20880;-71
2023/09/10 05:13:05;;;;;;;22.55;20.20;;;;;;;17.46;79.74;101912.88;7389115;19;19918;-70
2023/09/10 05:15:33;;;;;;;21.27;19.17;;;;;;;17.47;79.59;101917.28;7393222;19;20352;-70
2023/09/10 05:18:02;;;;;;;21.92;19.50;;;;;;;17.45;80.01;101928.38;7389393;19;19918;-71
2023/09/10 05:20:32;;;;;;;20.70;18.60;;;;;;;17.46;79.66;101919.16;7392842;19;19922;-72
2023/09/10 05:23:01;;;;;;;21.27;19.00;;;;;;;17.46;79.28;101926.50;7391010;19;19919;-71
2023/09/10 05:25:32;;;;;;;20.75;18.55;;;;;;;17.42;79.78;101926.06;7392245;19;19919;-70
2023/09/10 05:28:01;;;;;;;20.58;18.58;;;;;;;17.37;80.00;101917.63;7389367;19;20006;-71
2023/09/10 05:30:29;;;;;;;20.25;18.15;;;;;;;17.37;79.62;101922.22;7393322;19;19923;-71
2023/09/10 05:32:59;;;;;;;20.88;18.77;;;;;;;17.37;79.99;101925.78;7390639;19;19915;-71
2023/09/10 05:35:27;;;;;;;20.83;18.65;;;;;;;17.37;79.83;101923.06;7390459;19;20267;-71
2023/09/10 05:37:56;;;;;;;21.50;19.33;;;;;;;17.38;79.78;101926.63;7392222;19;19918;-71
2023/09/10 05:40:25;;;;;;;22.65;19.23;;;;;;;17.38;79.66;101921.19;7391193;19;20574;-71
2023/09/10 05:42:56;;;;;;;22.15;18.98;;;;;;;17.39;79.86;101920.97;7390938;19;19940;-71
2023/09/10 05:45:24;;;;;;;19.60;17.48;;;;;;;17.42;79.52;101925.19;7389951;19;19918;-71
2023/09/10 05:47:53;;;;;;;20.25;18.05;;;;;;;17.45;79.69;101927.53;7391019;19;20261;-71
2023/09/10 05:50:22;;;;;;;21.05;18.95;;;;;;;17.47;79.90;101931.75;7388613;19;19926;-71
2023/09/10 05:52:53;;;;;;;20.30;18.10;;;;;;;17.48;79.94;101932.56;7390528;19;19946;-71
2023/09/10 05:55:21;;;;;;;20.38;18.17;;;;;;;17.50;79.83;101933.22;7388681;19;19946;-71
2023/09/10 05:58:14;;;;;;;19.92;17.85;;;;;;;17.51;79.83;101935.78;7388961;19;19922;-70
2023/09/10 06:00:42;;;;;;;21.02;18.80;;;;;;;17.55;79.52;101938.94;7390309;19;19958;-71
2023/09/10 06:03:11;;;;;;;20.20;18.10;;;;;;;17.57;79.96;101934.13;7390395;19;19914;-71
2023/09/10 06:05:39;;;;;;;19.92;17.85;;;;;;;17.58;79.98;101949.47;7389090;19;19922;-71
2023/09/10 06:08:09;;;;;;;20.25;17.55;;;;;;;17.60;80.21;101950.94;7392544;19;19926;-71
2023/09/10 06:10:37;;;;;;;21.30;19.10;;;;;;;17.64;79.73;101944.09;7389203;19;19931;-71
2023/09/10 06:13:07;;;;;;;19.13;16.88;;;;;;;17.68;79.99;101939.94;7390217;19;19926;-71
2023/09/10 06:15:40;;;;;;;18.95;16.95;;;;;;;17.72;80.33;101942.25;7388502;19;19942;-71
2023/09/10 06:18:09;;;;;;;18.05;16.15;;;;;;;17.72;79.89;101950.44;7390433;19;19946;-72
2023/09/10 06:20:57;;;;;;;18.10;16.20;;;;;;;17.74;80.03;101959.22;7388823;19;19960;-71
2023/09/10 06:23:46;;;;;;;20.40;17.65;;;;;;;17.75;80.49;101959.06;7387080;19;20035;-71
2023/09/10 06:26:15;;;;;;;20.98;18.88;;;;;;;17.77;80.21;101967.03;7391082;19;19922;-71
2023/09/10 06:28:43;;;;;;;20.60;17.85;;;;;;;17.82;80.52;101965.38;7386738;19;19943;-71
2023/09/10 06:31:15;;;;;;;20.88;18.77;;;;;;;17.86;80.46;101968.59;7397213;19;19923;-71
2023/09/10 06:33:43;;;;;;;20.60;17.88;;;;;;;17.92;80.63;101968.63;7393756;19;19918;-71
2023/09/10 06:36:12;;;;;;;20.10;17.88;;;;;;;17.98;80.46;101970.56;7393031;19;19926;-71
2023/09/10 06:38:47;;;;;;;20.83;18.70;;;;;;;18.04;80.26;101977.94;7396907;19;20074;-71
2023/09/10 06:41:16;;;;;;;21.95;19.65;;;;;;;18.11;80.54;101978.00;7396939;19;19930;-70
2023/09/10 06:43:44;;;;;;;20.90;18.67;;;;;;;18.19;80.70;101971.53;7397004;19;19918;-71
2023/09/10 06:46:35;;;;;;;19.33;17.20;;;;;;;18.25;80.77;101973.47;7396369;19;19930;-71
2023/09/10 06:49:04;;;;;;;21.98;19.60;;;;;;;18.32;80.88;101979.78;7398003;19;19922;-71
2023/09/10 06:51:34;;;;;;;21.10;18.17;;;;;;;18.36;81.12;101979.19;7398461;19;19930;-71
2023/09/10 06:54:02;;;;;;;21.08;18.80;;;;;;;18.42;81.43;101977.56;7398422;19;19930;-72
2023/09/10 06:56:32;;;;;;;22.83;20.42;;;;;;;18.48;80.87;101971.28;7400092;19;19935;-71
2023/09/10 06:59:00;;;;;;;25.55;20.98;;;;;;;18.56;81.57;101973.84;7396930;19;19918;-71
2023/09/10 07:01:29;;;;;;;27.92;22.90;;;;;;;18.65;80.97;101972.66;7398042;19;19918;-71
2023/09/10 07:04:00;;;;;;;30.33;22.00;;;;;;;18.74;82.22;101973.31;7396689;19;19930;-71
2023/09/10 07:06:29;;;;;;;30.90;23.83;;;;;;;18.80;81.84;101970.63;7399299;19;19950;-71
2023/09/10 07:08:57;;;;;;;29.38;23.30;;;;;;;18.89;81.35;101965.81;7398086;19;20354;-71
2023/09/10 07:11:26;;;;;;;31.33;23.40;;;;;;;18.96;81.63;101977.59;7394551;19;19931;-71
2023/09/10 07:13:55;;;;;;;34.67;25.38;;;;;;;19.01;82.24;101980.56;7392006;19;19926;-71
2023/09/10 07:16:26;;;;;;;32.20;24.02;;;;;;;19.10;81.81;101975.75;7394901;19;19923;-71
2023/09/10 07:18:55;;;;;;;36.38;25.63;;;;;;;19.17;81.40;101971.13;7393013;19;20573;-71
2023/09/10 07:21:26;;;;;;;30.95;24.15;;;;;;;19.26;80.89;101972.63;7395302;19;19918;-71
2023/09/10 07:23:55;;;;;;;36.83;26.67;;;;;;;19.34;81.17;101975.16;7392945;19;19931;-71
2023/09/10 07:26:24;;;;;;;36.58;26.15;;;;;;;19.42;80.45;101980.44;7394816;19;19918;-71
2023/09/10 07:28:53;;;;;;;36.83;26.08;;;;;;;19.49;80.10;101984.06;7394462;19;19941;-71
2023/09/10 07:31:41;;;;;;;44.00;29.00;;;;;;;19.52;79.91;101977.31;7393943;19;19934;-71
2023/09/10 07:34:10;;;;;;;40.03;27.67;;;;;;;19.58;80.46;101988.28;7390801;19;19922;-71
2023/09/10 07:36:43;;;;;;;40.28;27.52;;;;;;;19.67;79.99;101986.19;7394563;19;19921;-71
2023/09/10 07:39:12;;;;;;;39.90;27.08;;;;;;;19.74;79.83;101993.31;7393653;19;19926;-71
2023/09/10 07:41:41;;;;;;;38.90;28.35;;;;;;;19.81;80.28;101994.16;7393207;19;20019;-71
2023/09/10 07:44:09;;;;;;;36.53;26.33;;;;;;;19.88;80.26;101999.66;7391859;19;19922;-71
2023/09/10 07:46:38;;;;;;;36.88;24.75;;;;;;;19.95;80.05;101995.00;7393799;19;19930;-72
2023/09/10 07:49:07;;;;;;;34.00;25.35;;;;;;;20.04;79.95;101999.22;7392167;19;20517;-70
2023/09/10 07:51:35;;;;;;;38.65;26.33;;;;;;;20.13;79.63;101997.94;7393569;19;19929;-71
2023/09/10 07:54:07;;;;;;;32.67;23.88;;;;;;;20.21;79.20;101994.97;7394033;19;19923;-71
2023/09/10 07:56:35;;;;;;;33.00;23.90;;;;;;;20.30;79.25;101998.34;7392942;19;19949;-71
2023/09/10 07:59:04;;;;;;;35.30;26.02;;;;;;;20.38;78.93;101995.38;7392620;19;19942;-70
2023/09/10 08:01:33;;;;;;;33.70;24.17;;;;;;;20.44;78.43;101994.53;7391388;19;19931;-71
2023/09/10 08:04:01;;;;;;;40.67;25.13;;;;;;;20.51;78.14;101991.78;7393417;19;20478;-70
2023/09/10 08:06:30;;;;;;;33.17;23.38;;;;;;;20.58;78.60;101998.91;7391602;19;19919;-71
2023/09/10 08:08:59;;;;;;;38.63;26.02;;;;;;;20.65;78.35;102002.47;7393901;19;20338;-71
2023/09/10 08:11:30;;;;;;;35.83;26.08;;;;;;;20.72;78.58;102000.53;7391162;19;20517;-71
2023/09/10 08:14:20;;;;;;;37.97;25.60;;;;;;;20.81;78.20;102002.00;7391035;19;19918;-72
2023/09/10 08:16:48;;;;;;;34.33;25.67;;;;;;;20.91;78.42;101997.94;7393599;19;19923;-71
2023/09/10 08:19:17;;;;;;;35.85;25.60;;;;;;;20.99;78.63;101998.53;7393317;19;19923;-71
2023/09/10 08:21:45;;;;;;;38.17;28.30;;;;;;;21.07;77.81;102000.19;7392613;19;22148;-71
2023/09/10 08:24:34;;;;;;;38.40;27.00;;;;;;;21.16;77.69;101998.91;7388868;19;20016;-71
2023/09/10 08:27:06;;;;;;;37.17;27.23;;;;;;;21.25;77.64;101992.09;7392823;19;20353;-70
2023/09/10 08:29:35;;;;;;;35.08;26.20;;;;;;;21.32;77.09;101995.63;7391799;19;19923;-71
2023/09/10 08:32:03;;;;;;;34.05;24.63;;;;;;;21.41;77.60;101996.22;7393257;19;19923;-70
2023/09/10 08:34:32;;;;;;;35.22;24.85;;;;;;;21.51;77.37;101991.94;7390807;19;19963;-71
2023/09/10 08:37:02;;;;;;;34.10;25.58;;;;;;;21.60;76.65;101990.59;7392776;19;19929;-71
2023/09/10 08:39:51;;;;;;;37.70;24.45;;;;;;;21.68;76.05;101987.56;7390152;19;19923;-71
2023/09/10 08:42:34;;;;;;;32.75;22.92;;;;;;;21.76;75.05;101989.19;7393809;19;20575;-71
2023/09/10 08:45:07;;;;;;;23.70;17.83;;;;;;;21.83;72.86;101991.91;7392595;19;19961;-71
2023/09/10 08:47:41;;;;;;;25.13;19.50;;;;;;;21.90;72.44;101990.78;7391059;19;19978;-71
2023/09/10 08:50:32;;;;;;;24.35;17.42;;;;;;;21.97;72.33;101999.81;7390871;19;19922;-71
2023/09/10 08:53:01;;;;;;;24.20;19.08;;;;;;;22.05;71.88;101996.78;7388269;19;19926;-72
2023/09/10 08:55:32;;;;;;;27.75;18.50;;;;;;;22.15;71.48;101999.84;7392770;19;19922;-71
2023/09/10 08:58:04;;;;;;;24.38;18.10;;;;;;;22.18;70.21;101998.56;7390237;19;19951;-71
2023/09/10 09:00:35;;;;;;;21.67;15.38;;;;;;;22.30;70.87;101996.75;7392193;19;19942;-71
2023/09/10 09:03:03;;;;;;;22.15;17.83;;;;;;;22.39;69.49;102000.06;7390757;19;20264;-70
2023/09/10 09:05:55;;;;;;;21.20;15.93;;;;;;;22.46;69.35;101995.31;7387981;19;19923;-71
2023/09/10 09:08:29;;;;;;;24.35;16.10;;;;;;;22.53;69.47;101996.91;7394448;19;19942;-71
2023/09/10 09:10:58;;;;;;;23.27;14.43;;;;;;;22.58;68.41;101997.06;7389977;19;20351;-71
2023/09/10 09:13:31;;;;;;;25.20;18.35;;;;;;;22.69;68.54;102005.63;7393033;19;20365;-71
2023/09/10 09:16:22;;;;;;;20.38;14.63;;;;;;;22.80;69.00;101996.63;7390803;19;19971;-71
2023/09/10 09:18:51;;;;;;;20.27;15.35;;;;;;;22.91;69.22;101996.69;7391802;19;19922;-71
2023/09/10 09:21:20;;;;;;;21.52;16.15;;;;;;;23.04;69.35;101988.25;7391250;19;19942;-71
2023/09/10 09:23:53;;;;;;;26.10;16.90;;;;;;;23.18;69.10;101983.41;7391763;19;20291;-71
2023/09/10 09:26:24;;;;;;;25.98;18.15;;;;;;;23.26;67.86;101985.84;7390700;19;19922;-71
2023/09/10 09:28:56;;;;;;;22.08;17.23;;;;;;;23.32;66.83;101984.91;7391830;19;19946;-71
2023/09/10 09:31:25;;;;;;;22.90;19.08;;;;;;;23.38;67.25;101978.50;7393168;19;19933;-71
2023/09/10 09:33:54;;;;;;;22.67;16.83;;;;;;;23.44;67.53;101972.06;7391645;19;19922;-71
2023/09/10 09:36:28;;;;;;;24.70;17.40;;;;;;;23.53;66.94;101980.81;7390989;19;19930;-71
2023/09/10 09:38:57;;;;;;;23.40;16.73;;;;;;;23.64;67.02;101977.25;7393809;19;20293;-71
2023/09/10 09:41:26;;;;;;;25.75;18.27;;;;;;;23.73;66.80;101977.75;7390335;19;19923;-71
2023/09/10 09:43:59;;;;;;;23.65;19.15;;;;;;;23.81;66.17;101971.91;7392294;19;19923;-71
2023/09/10 09:46:33;;;;;;;21.55;17.85;;;;;;;23.90;66.61;101976.78;7389475;19;20360;-71
2023/09/10 09:49:02;;;;;;;26.13;17.88;;;;;;;24.01;66.50;101971.53;7391578;19;19922;-70
2023/09/10 09:51:32;;;;;;;22.25;17.83;;;;;;;24.05;64.92;101976.31;7389684;19;19929;-70
2023/09/10 09:54:01;;;;;;;22.67;15.95;;;;;;;24.11;65.71;101972.63;7390588;19;19922;-70
2023/09/10 09:56:31;;;;;;;23.50;19.35;;;;;;;24.18;65.26;101973.38;7387998;19;19914;-71
2023/09/10 09:59:02;;;;;;;23.95;17.45;;;;;;;24.24;65.26;101966.91;7389988;19;19922;-70
2023/09/10 10:01:51;;;;;;;23.73;18.30;;;;;;;24.30;64.68;101960.41;7389020;19;19918;-71
2023/09/10 10:04:21;;;;;;;21.35;17.63;;;;;;;24.35;64.40;101966.03;7390926;19;19922;-71
2023/09/10 10:06:50;;;;;;;24.13;17.05;;;;;;;24.45;65.24;101959.09;7396608;19;19918;-71
2023/09/10 10:09:19;;;;;;;26.33;17.67;;;;;;;24.56;64.42;101970.06;7395952;19;19922;-72
2023/09/10 10:11:47;;;;;;;24.33;17.80;;;;;;;24.62;64.48;101966.34;7396510;19;19925;-71
2023/09/10 10:14:21;;;;;;;25.05;20.08;;;;;;;24.74;64.72;101963.56;7395440;19;19922;-71
2023/09/10 10:16:52;;;;;;;25.17;18.77;;;;;;;24.84;65.06;101956.34;7395291;19;19921;-71
2023/09/10 10:19:22;;;;;;;21.90;17.33;;;;;;;24.97;65.26;101955.25;7394350;19;19954;-71
2023/09/10 10:21:53;;;;;;;21.15;16.38;;;;;;;25.09;64.05;101961.53;7395751;19;19921;-71
2023/09/10 10:24:24;;;;;;;25.27;19.38;;;;;;;25.18;63.06;101957.31;7395114;19;19951;-71
2023/09/10 10:26:54;;;;;;;23.88;18.40;;;;;;;25.20;62.55;101962.56;7395058;19;19918;-70
2023/09/10 10:29:26;;;;;;;21.05;17.02;;;;;;;25.24;61.92;101956.28;7395754;19;19919;-70
2023/09/10 10:32:03;;;;;;;25.05;18.75;;;;;;;25.32;61.96;101959.75;7394933;19;19929;-70
2023/09/10 10:34:38;;;;;;;26.27;18.02;;;;;;;25.41;62.16;101944.47;7394925;19;19922;-70
2023/09/10 10:37:15;;;;;;;25.33;18.65;;;;;;;25.51;61.37;101939.09;7396753;19;20313;-70
2023/09/10 10:40:10;;;;;;;24.20;18.45;;;;;;;25.63;61.41;101940.72;7393068;19;19978;-70
2023/09/10 10:42:46;;;;;;;23.25;16.45;;;;;;;25.71;61.79;101934.78;7392817;19;19960;-70
2023/09/10 10:45:18;;;;;;;22.75;18.58;;;;;;;25.82;61.32;101933.03;7396120;19;20051;-70
2023/09/10 10:47:48;;;;;;;23.75;17.92;;;;;;;25.96;61.67;101931.59;7392493;19;19922;-70
2023/09/10 10:50:24;;;;;;;20.35;16.20;;;;;;;26.10;61.40;101930.13;7395492;19;20245;-70
2023/09/10 10:53:00;;;;;;;21.40;17.27;;;;;;;26.27;60.54;101932.91;7392091;19;19914;-71
2023/09/10 10:55:52;;;;;;;22.27;16.10;;;;;;;26.45;60.33;101929.81;7390197;19;19978;-71
2023/09/10 10:58:23;;;;;;;21.02;16.42;;;;;;;26.57;59.83;101922.25;7395199;19;19933;-70
2023/09/10 11:00:56;;;;;;;17.90;15.75;;;;;;;26.67;59.21;101918.75;7391997;19;19930;-71
2023/09/10 11:03:25;;;;;;;20.88;16.88;;;;;;;26.76;59.04;101917.19;7395872;19;20121;-70
2023/09/10 11:06:09;;;;;;;21.63;16.02;;;;;;;26.79;59.02;101918.63;7392420;19;19927;-70
2023/09/10 11:08:40;;;;;;;21.65;16.08;;;;;;;26.92;58.56;101919.06;7396225;19;20302;-70
2023/09/10 11:11:50;;;;;;;24.15;17.17;;;;;;;26.98;58.26;101915.25;7393147;19;20479;-70
2023/09/10 11:14:18;;;;;;;20.52;16.58;;;;;;;27.12;57.89;101923.97;7393709;19;20260;-70
2023/09/10 11:16:50;;;;;;;26.08;19.23;;;;;;;27.20;56.96;101922.66;7393908;19;19922;-70
2023/09/10 11:19:47;;;;;;;21.50;16.45;;;;;;;27.17;57.63;101917.66;7393883;19;19914;-70
2023/09/10 11:22:15;;;;;;;18.20;13.65;;;;;;;27.32;57.72;101918.63;7391619;19;20348;-71
2023/09/10 11:24:44;;;;;;;21.95;13.95;;;;;;;27.48;58.00;101917.69;7394174;19;19933;-70
2023/09/10 11:27:34;;;;;;;18.60;13.95;;;;;;;27.65;57.63;101912.03;7392588;19;20483;-70
2023/09/10 11:30:13;;;;;;;23.30;16.70;;;;;;;27.69;55.72;101912.31;7394443;19;19982;-71
2023/09/10 11:32:45;;;;;;;17.00;14.88;;;;;;;27.82;55.48;101918.25;7392663;19;19950;-71
2023/09/10 11:35:27;;;;;;;17.80;13.40;;;;;;;27.93;55.82;101917.19;7391311;19;20017;-71